KFGN

Flag Island Airport

Flag Island, Minnesota, USA
METAR KFGN 161856Z AUTO 16003KT 10SM OVC100 M22/M26 A3032 RMK AO2
Observed Flight Rules
Jan-16 @ 18:56 UTC (11 minutes ago) Visual Flight Rules
Wind Visibility Clouds
160° at 3 knots 10 miles
  • Overcast at 10,000' AGL
Temperatures Readings
Current -22°C / -8°F
Dewpoint -26°C / -15°F
Humidity 70%
Altimeter 30.32" Hg
Pressure 1026.72 hPa
Elevation 328
METAR KFGN 161856Z AUTO 16003KT 10SM OVC100 M22/M26 A3032 RMK AO2
Observed Flight Rules
Jan-16 @ 18:56 UTC
(11 minutes ago)
VFR
Wind Visibility
160° at 3 knots 10 miles
Clouds
  • Overcast at 10,000' AGL
Temperature Dewpoint
-22°C / -8°F -26°C / -15°F
Humidity Altimeter Pressure
70% 30.32" Hg 1026.72 hPa